Time;durP1;ratioP1;P1;durP2;ratioP2;P2;SDS_P1;SDS_P2;PMS_P1;PMS_P2;Temp;Humidity;BMP_temperature;BMP_pressure;BME280_temperature;BME280_humidity;BME280_pressure;Samples;Min_cycle;Max_cycle;Signal;HPM_P1;HPM_P2
2023/07/17 00:00:32;;;;;;;19.80;6.80;;;;;;;16.37;100.00;101171.61;107053;1282;58932;-78
2023/07/17 00:02:57;;;;;;;19.00;7.00;;;;;;;16.34;100.00;101169.05;106656;1282;59093;-78
2023/07/17 00:05:23;;;;;;;18.20;6.80;;;;;;;16.34;100.00;101170.98;107016;1283;59013;-78
2023/07/17 00:07:48;;;;;;;16.90;6.80;;;;;;;16.30;100.00;101164.52;106846;1282;59068;-78
2023/07/17 00:10:14;;;;;;;18.10;6.60;;;;;;;16.29;100.00;101164.37;107090;1282;59026;-78
2023/07/17 00:12:40;;;;;;;20.40;6.30;;;;;;;16.24;100.00;101165.95;106573;1282;59378;-78
2023/07/17 00:15:07;;;;;;;13.70;6.20;;;;;;;16.17;100.00;101162.50;107051;1282;59086;-78
2023/07/17 00:17:33;;;;;;;15.20;6.20;;;;;;;16.15;100.00;101162.63;107032;1282;59059;-78
2023/07/17 00:20:00;;;;;;;14.40;6.30;;;;;;;16.13;100.00;101160.90;107053;1282;59312;-78
2023/07/17 00:22:26;;;;;;;13.20;5.60;;;;;;;16.09;100.00;101160.39;107044;1282;59146;-78
2023/07/17 00:24:52;;;;;;;10.70;5.90;;;;;;;16.05;100.00;101159.27;106457;1288;59043;-78
2023/07/17 00:27:19;;;;;;;13.60;6.30;;;;;;;16.01;100.00;101161.26;107037;1282;59101;-78
2023/07/17 00:29:44;;;;;;;14.30;6.30;;;;;;;15.99;100.00;101163.99;107014;1285;59110;-78
2023/07/17 00:32:11;;;;;;;15.30;6.20;;;;;;;16.00;100.00;101162.56;107056;1282;59126;-78
2023/07/17 00:34:38;;;;;;;14.40;6.00;;;;;;;15.99;100.00;101159.63;107047;1287;59029;-78
2023/07/17 00:37:04;;;;;;;13.10;6.20;;;;;;;15.99;100.00;101165.52;107009;1282;59217;-79
2023/07/17 00:39:29;;;;;;;13.00;6.30;;;;;;;15.94;100.00;101165.06;107076;1282;59047;-78
2023/07/17 00:41:55;;;;;;;14.00;6.50;;;;;;;15.89;100.00;101161.89;107090;1282;59076;-78
2023/07/17 00:44:21;;;;;;;17.30;7.10;;;;;;;15.87;100.00;101164.51;106498;1282;59478;-78
2023/07/17 00:46:48;;;;;;;17.10;7.00;;;;;;;15.84;100.00;101167.18;107058;1282;59101;-78
2023/07/17 00:49:13;;;;;;;15.10;6.90;;;;;;;15.81;100.00;101163.94;107013;1282;59047;-78
2023/07/17 00:51:41;;;;;;;14.80;6.80;;;;;;;15.78;100.00;101163.80;106499;1282;59153;-78
2023/07/17 00:54:08;;;;;;;13.30;6.80;;;;;;;15.78;100.00;101164.34;107041;1282;59288;-78
2023/07/17 00:56:34;;;;;;;20.90;7.30;;;;;;;15.81;100.00;101169.00;107037;1282;59104;-79
2023/07/17 00:59:01;;;;;;;16.80;7.30;;;;;;;15.78;100.00;101168.52;107007;1283;58983;-78
2023/07/17 01:01:27;;;;;;;11.70;6.30;;;;;;;15.77;100.00;101161.03;106974;1282;59999;-78
2023/07/17 01:03:55;;;;;;;14.20;7.20;;;;;;;15.79;100.00;101164.33;106818;1282;59210;-78
2023/07/17 01:06:21;;;;;;;14.10;7.00;;;;;;;15.79;100.00;101169.98;107042;1282;61650;-78
2023/07/17 01:08:46;;;;;;;18.40;6.80;;;;;;;15.78;100.00;101170.96;107053;1282;59033;-78
2023/07/17 01:11:13;;;;;;;12.90;6.50;;;;;;;15.73;100.00;101174.32;106811;1285;59068;-79
2023/07/17 01:13:45;;;;;;;17.50;7.40;;;;;;;15.69;100.00;101173.46;107010;1282;59923;-78
2023/07/17 01:16:11;;;;;;;18.00;7.20;;;;;;;15.66;100.00;101172.46;106832;1286;72264;-78
2023/07/17 01:18:37;;;;;;;16.50;7.20;;;;;;;15.65;100.00;101177.30;107010;1283;59011;-78
2023/07/17 01:21:05;;;;;;;13.30;6.80;;;;;;;15.62;100.00;101177.83;107104;1283;58932;-78
2023/07/17 01:23:31;;;;;;;12.90;6.80;;;;;;;15.60;100.00;101181.90;107084;1282;74421;-78
2023/07/17 01:25:57;;;;;;;18.70;7.00;;;;;;;15.55;100.00;101180.84;107006;1282;59046;-78
2023/07/17 01:28:22;;;;;;;17.00;6.70;;;;;;;15.50;100.00;101178.90;107029;1282;59045;-78
2023/07/17 01:30:48;;;;;;;15.60;6.90;;;;;;;15.49;100.00;101185.65;107018;1282;59007;-78
2023/07/17 01:33:13;;;;;;;14.50;6.70;;;;;;;15.44;100.00;101184.40;107068;1282;59099;-78
2023/07/17 01:35:39;;;;;;;16.20;7.10;;;;;;;15.43;100.00;101187.63;107017;1283;74618;-78
2023/07/17 01:38:05;;;;;;;14.20;7.00;;;;;;;15.41;100.00;101190.77;106526;1282;59191;-78
2023/07/17 01:40:30;;;;;;;12.40;6.70;;;;;;;15.38;100.00;101186.00;106976;1282;58996;-78
2023/07/17 01:42:56;;;;;;;16.30;6.40;;;;;;;15.39;100.00;101188.98;106584;1283;59160;-78
2023/07/17 01:45:21;;;;;;;14.20;6.60;;;;;;;15.38;100.00;101189.76;107101;1282;59101;-78
2023/07/17 01:47:47;;;;;;;12.90;6.80;;;;;;;15.38;100.00;101196.33;107044;1282;73635;-78
2023/07/17 01:50:12;;;;;;;14.90;7.00;;;;;;;15.40;100.00;101197.24;107011;1285;58994;-78
2023/07/17 01:52:38;;;;;;;17.40;7.10;;;;;;;15.41;100.00;101203.65;107041;1285;59107;-77
2023/07/17 01:55:04;;;;;;;12.80;6.10;;;;;;;15.42;100.00;101201.90;107061;1282;58961;-78
2023/07/17 01:57:29;;;;;;;12.40;6.60;;;;;;;15.40;100.00;101207.29;106614;1282;59449;-78
2023/07/17 01:59:55;;;;;;;15.50;6.70;;;;;;;15.38;100.00;101206.65;107049;1282;61850;-78
2023/07/17 02:02:20;;;;;;;12.80;6.00;;;;;;;15.36;100.00;101213.02;106639;1283;59137;-78
2023/07/17 02:04:46;;;;;;;16.80;7.10;;;;;;;15.35;100.00;101209.61;106865;1283;59504;-78
2023/07/17 02:07:11;;;;;;;17.40;6.40;;;;;;;15.36;100.00;101207.54;107077;1287;59093;-78
2023/07/17 02:09:37;;;;;;;12.80;6.40;;;;;;;15.35;100.00;101208.20;107065;1283;59125;-78
2023/07/17 02:12:02;;;;;;;16.90;6.40;;;;;;;15.39;100.00;101209.05;106501;1283;59141;-78
2023/07/17 02:14:28;;;;;;;16.00;7.10;;;;;;;15.41;100.00;101204.95;106520;1282;59149;-78
2023/07/17 02:16:53;;;;;;;18.60;6.80;;;;;;;15.37;100.00;101209.42;107009;1283;59087;-77
2023/07/17 02:19:19;;;;;;;15.20;7.00;;;;;;;15.34;100.00;101205.26;106620;1283;59148;-78
2023/07/17 02:21:44;;;;;;;16.90;7.00;;;;;;;15.30;100.00;101206.95;107057;1283;59077;-78
2023/07/17 02:24:10;;;;;;;12.20;6.00;;;;;;;15.34;100.00;101206.51;107038;1282;74899;-78
2023/07/17 02:26:35;;;;;;;15.70;6.30;;;;;;;15.40;100.00;101207.24;107047;1283;59119;-78
2023/07/17 02:29:02;;;;;;;17.00;6.60;;;;;;;15.46;100.00;101208.15;107030;1282;59112;-78
2023/07/17 02:31:28;;;;;;;18.40;6.50;;;;;;;15.55;100.00;101210.34;106538;1283;59578;-78
2023/07/17 02:33:55;;;;;;;13.40;6.60;;;;;;;15.60;100.00;101212.11;107089;1282;59442;-78
2023/07/17 02:36:21;;;;;;;14.50;6.60;;;;;;;15.65;100.00;101211.98;107013;1283;59303;-78
2023/07/17 02:38:46;;;;;;;16.10;6.30;;;;;;;15.74;100.00;101213.12;107043;1283;59195;-78
2023/07/17 02:41:14;;;;;;;12.10;6.70;;;;;;;15.80;100.00;101214.66;107049;1283;58993;-78
2023/07/17 02:43:39;;;;;;;17.70;7.40;;;;;;;15.89;100.00;101215.32;107044;1283;59394;-78
2023/07/17 02:46:04;;;;;;;16.00;6.30;;;;;;;15.99;100.00;101213.04;107050;1283;59137;-79
2023/07/17 02:48:30;;;;;;;16.70;6.50;;;;;;;16.06;100.00;101212.40;107043;1283;59100;-79
2023/07/17 02:50:55;;;;;;;12.20;6.40;;;;;;;16.16;100.00;101210.44;106996;1283;59082;-79
2023/07/17 02:53:21;;;;;;;17.40;6.70;;;;;;;16.31;100.00;101210.17;106726;1283;59135;-79
2023/07/17 02:55:46;;;;;;;16.30;6.90;;;;;;;16.47;100.00;101212.55;107001;1283;59229;-79
2023/07/17 02:58:16;;;;;;;18.70;7.00;;;;;;;16.62;100.00;101212.54;106687;1282;59066;-79
2023/07/17 03:00:42;;;;;;;15.90;6.40;;;;;;;16.78;100.00;101204.41;106617;1283;70173;-79
2023/07/17 03:03:07;;;;;;;14.00;6.30;;;;;;;16.94;100.00;101207.48;107057;1283;58945;-79
2023/07/17 03:05:35;;;;;;;16.40;7.10;;;;;;;17.14;100.00;101204.73;107045;1283;59119;-79
2023/07/17 03:08:00;;;;;;;16.00;5.90;;;;;;;17.32;100.00;101205.29;106597;1282;59109;-78
2023/07/17 03:10:26;;;;;;;12.70;6.30;;;;;;;17.46;100.00;101202.61;107021;1282;59121;-79
2023/07/17 03:12:54;;;;;;;10.80;5.60;;;;;;;17.61;100.00;101204.11;106495;1283;59214;-80
2023/07/17 03:15:20;;;;;;;12.60;5.90;;;;;;;17.76;100.00;101205.67;107062;1282;59003;-80
2023/07/17 03:17:46;;;;;;;14.70;6.10;;;;;;;17.98;100.00;101208.09;107079;1283;59066;-80
2023/07/17 03:21:19;;;;;;;;;;;;;;;;;;;;;
2023/07/17 03:23:18;;;;;;;18.70;6.10;;;;;;;18.55;100.00;101207.64;106085;1291;72417;-80
2023/07/17 03:25:43;;;;;;;14.10;5.20;;;;;;;19.04;100.00;101206.64;106047;1290;71367;-81
2023/07/17 03:28:10;;;;;;;12.00;4.40;;;;;;;19.75;100.00;101209.01;106226;1289;59034;-78
2023/07/17 03:30:43;;;;;;;10.20;4.10;;;;;;;20.59;100.00;101206.49;106410;1289;59119;-82
2023/07/17 03:33:08;;;;;;;9.60;4.20;;;;;;;21.50;100.00;101200.56;106099;1292;74610;-80
2023/07/17 03:35:36;;;;;;;12.40;4.20;;;;;;;22.31;100.00;101202.36;106156;1292;59146;-80
2023/07/17 03:38:03;;;;;;;12.00;4.40;;;;;;;23.02;100.00;101199.86;106168;1292;72203;-81
2023/07/17 03:44:15;;;;;;;13.50;4.50;;;;;;;24.93;100.00;101202.00;103462;1286;601412;-82
2023/07/17 03:46:41;;;;;;;10.10;4.30;;;;;;;25.69;100.00;101199.04;103456;1289;60410;-80
2023/07/17 03:49:07;;;;;;;10.10;4.30;;;;;;;26.35;100.00;101199.18;103802;1289;60390;-82
2023/07/17 03:51:32;;;;;;;11.20;4.10;;;;;;;26.85;100.00;101200.61;103071;1289;60334;-82
2023/07/17 03:54:21;;;;;;;11.70;4.00;;;;;;;27.46;100.00;101200.05;103753;1289;60479;-81
2023/07/17 03:56:49;;;;;;;8.80;4.00;;;;;;;28.09;100.00;101196.30;102652;1288;755580;-80
2023/07/17 03:59:22;;;;;;;11.40;4.20;;;;;;;28.54;98.36;101198.64;103932;1289;60383;-80
2023/07/17 04:01:47;;;;;;;12.40;4.10;;;;;;;29.16;92.39;101202.27;103673;1289;73410;-80
2023/07/17 04:04:16;;;;;;;10.50;4.20;;;;;;;29.66;89.34;101198.05;103408;1286;60379;-81
2023/07/17 04:09:56;;;;;;;6.80;3.80;;;;;;;30.46;78.37;101199.43;102976;1290;599267;-81
2023/07/17 04:12:22;;;;;;;12.10;4.10;;;;;;;30.68;74.54;101207.88;103360;1290;60376;-80
2023/07/17 04:14:47;;;;;;;9.40;4.00;;;;;;;30.94;72.87;101206.39;103705;1286;60408;-80
2023/07/17 04:17:13;;;;;;;7.90;4.00;;;;;;;31.33;69.96;101206.48;103658;1286;60399;-79
2023/07/17 04:19:38;;;;;;;7.70;4.00;;;;;;;31.71;66.98;101211.73;103309;1291;73415;-81
2023/07/17 04:22:04;;;;;;;10.40;4.10;;;;;;;32.17;64.84;101211.33;103432;1290;60410;-79
2023/07/17 04:24:29;;;;;;;16.00;4.10;;;;;;;32.70;61.95;101213.34;102540;1286;455961;-80
2023/07/17 04:26:55;;;;;;;10.90;4.10;;;;;;;32.92;59.49;101215.36;103563;1286;60337;-79
2023/07/17 04:29:23;;;;;;;12.00;3.90;;;;;;;33.11;59.32;101214.34;103740;1285;60395;-81
2023/07/17 04:31:49;;;;;;;15.50;4.20;;;;;;;33.54;56.45;101215.58;103689;1284;61759;-82
2023/07/17 04:34:15;;;;;;;11.20;4.00;;;;;;;33.84;54.49;101217.09;103552;1289;60360;-80
2023/07/17 04:36:41;;;;;;;11.30;4.20;;;;;;;34.15;53.08;101215.32;103259;1291;60513;-81
2023/07/17 04:39:06;;;;;;;8.50;3.60;;;;;;;34.30;51.31;101215.96;103304;1285;60322;-81
2023/07/17 04:41:32;;;;;;;7.10;4.20;;;;;;;34.37;50.87;101216.23;103612;1287;60391;-81
2023/07/17 04:43:57;;;;;;;16.00;4.30;;;;;;;34.51;49.58;101215.69;103756;1287;60409;-81
2023/07/17 04:46:24;;;;;;;8.90;3.20;;;;;;;34.77;48.57;101211.91;103660;1286;74125;-81
2023/07/17 04:48:49;;;;;;;9.60;3.80;;;;;;;35.11;47.15;101213.26;103508;1286;60315;-80
2023/07/17 04:51:15;;;;;;;9.20;3.90;;;;;;;35.42;46.56;101212.48;103555;1284;60347;-80
2023/07/17 04:53:40;;;;;;;8.80;3.60;;;;;;;35.72;45.48;101213.58;103722;1286;60408;-80
2023/07/17 04:56:06;;;;;;;8.00;3.20;;;;;;;35.97;44.64;101217.36;103920;1286;60350;-81
2023/07/17 04:58:35;;;;;;;10.30;4.10;;;;;;;36.14;43.93;101218.91;103913;1286;60395;-81
2023/07/17 05:01:01;;;;;;;6.60;3.00;;;;;;;36.37;44.02;101219.88;103729;1286;74365;-82
2023/07/17 05:03:30;;;;;;;7.00;3.40;;;;;;;36.75;42.65;101218.79;103758;1285;60327;-80
2023/07/17 05:05:56;;;;;;;6.00;3.80;;;;;;;37.06;41.88;101214.19;103970;1286;61298;-81
2023/07/17 05:08:22;;;;;;;9.10;3.70;;;;;;;37.37;41.91;101217.84;103853;1285;60398;-82
2023/07/17 05:10:58;;;;;;;11.10;3.60;;;;;;;37.81;40.82;101220.21;103844;1286;60341;-83
2023/07/17 05:13:24;;;;;;;5.50;3.40;;;;;;;38.16;39.29;101220.06;103871;1287;73065;-81
2023/07/17 05:15:50;;;;;;;5.50;3.60;;;;;;;38.39;38.85;101218.38;103765;1286;60353;-82
2023/07/17 05:18:16;;;;;;;7.00;4.10;;;;;;;38.67;38.31;101220.86;103819;1286;60442;-82
2023/07/17 05:20:46;;;;;;;10.80;3.50;;;;;;;38.84;38.02;101216.98;103713;1287;60706;-83
2023/07/17 05:26:35;;;;;;;6.50;3.40;;;;;;;39.44;35.80;101217.07;102918;1294;600136;-81
2023/07/17 05:29:02;;;;;;;8.60;3.10;;;;;;;39.54;35.34;101218.23;103139;1293;60316;-82
2023/07/17 05:31:27;;;;;;;10.20;3.40;;;;;;;39.90;34.68;101218.13;103293;1291;60401;-82
2023/07/17 05:33:53;;;;;;;5.50;3.20;;;;;;;40.25;34.16;101220.06;103052;1298;60526;-83
2023/07/17 05:36:19;;;;;;;9.00;3.80;;;;;;;40.33;33.39;101218.89;103111;1293;60466;-82
2023/07/17 05:38:44;;;;;;;6.40;3.20;;;;;;;40.30;32.64;101219.93;102911;1298;60411;-81
2023/07/17 05:41:10;;;;;;;7.30;3.50;;;;;;;40.16;32.56;101220.48;106332;1288;336736;-80
2023/07/17 05:43:35;;;;;;;7.80;3.30;;;;;;;40.12;32.57;101216.99;106495;1289;58182;-80
2023/07/17 05:46:02;;;;;;;4.50;3.30;;;;;;;40.36;32.75;101218.35;106520;1288;58108;-81
2023/07/17 05:48:27;;;;;;;5.50;3.10;;;;;;;40.59;32.11;101216.91;106733;1286;58252;-79
2023/07/17 05:50:53;;;;;;;5.80;3.40;;;;;;;40.72;31.37;101219.65;106746;1286;58115;-81
2023/07/17 05:53:18;;;;;;;5.80;3.50;;;;;;;41.05;31.28;101216.07;106783;1286;58089;-82
2023/07/17 05:55:44;;;;;;;6.90;3.80;;;;;;;41.16;31.18;101214.45;106755;1286;58439;-82
2023/07/17 05:58:09;;;;;;;4.70;3.50;;;;;;;41.41;31.17;101210.84;106288;1286;58332;-81
2023/07/17 06:00:35;;;;;;;6.90;3.90;;;;;;;41.56;30.36;101211.13;106735;1286;58215;-82
2023/07/17 06:03:00;;;;;;;6.60;3.60;;;;;;;41.69;30.07;101211.92;106467;1289;58379;-82
2023/07/17 06:05:26;;;;;;;5.40;3.70;;;;;;;41.92;30.25;101211.98;106752;1286;58292;-80
2023/07/17 06:07:51;;;;;;;5.70;3.90;;;;;;;42.05;29.99;101208.72;106424;1289;72601;-81
2023/07/17 06:10:17;;;;;;;4.90;3.70;;;;;;;42.34;29.31;101209.14;106416;1289;58205;-83
2023/07/17 06:12:42;;;;;;;5.80;3.90;;;;;;;42.69;28.91;101206.37;106221;1290;58140;-80
2023/07/17 06:15:09;;;;;;;4.40;3.60;;;;;;;42.88;28.52;101210.93;106449;1289;58382;-82
2023/07/17 06:17:35;;;;;;;5.50;3.60;;;;;;;43.22;28.49;101208.42;106212;1289;58313;-80
2023/07/17 06:20:13;;;;;;;5.90;3.80;;;;;;;43.70;27.81;101207.59;106406;1288;58207;-80
2023/07/17 06:22:39;;;;;;;5.60;3.90;;;;;;;44.08;27.07;101201.14;106409;1289;60275;-82
2023/07/17 06:25:05;;;;;;;6.90;4.20;;;;;;;43.77;26.73;101205.93;106157;1294;58318;-82
2023/07/17 06:27:30;;;;;;;7.90;4.30;;;;;;;43.70;26.72;101201.41;106424;1289;58112;-81
2023/07/17 06:29:56;;;;;;;5.40;4.10;;;;;;;43.92;26.62;101199.08;106390;1289;58185;-82
2023/07/17 06:32:22;;;;;;;5.90;4.70;;;;;;;44.25;26.51;101196.74;106444;1289;58182;-82
2023/07/17 06:34:48;;;;;;;4.20;3.70;;;;;;;44.26;26.02;101197.25;106414;1288;58544;-83
2023/07/17 06:37:13;;;;;;;5.90;4.10;;;;;;;44.20;25.81;101199.21;106395;1289;74020;-82
2023/07/17 06:39:39;;;;;;;7.70;4.00;;;;;;;44.12;25.96;101204.02;106647;1286;58165;-81
2023/07/17 06:42:05;;;;;;;7.70;4.30;;;;;;;44.22;25.70;101198.42;106778;1286;58222;-82
2023/07/17 06:44:30;;;;;;;6.50;4.40;;;;;;;44.28;25.65;101199.35;106708;1286;58099;-81
2023/07/17 06:46:56;;;;;;;8.90;4.40;;;;;;;44.46;25.08;101202.94;106751;1286;58124;-81
2023/07/17 06:49:21;;;;;;;6.10;4.60;;;;;;;44.52;24.79;101202.56;106759;1286;74518;-81
2023/07/17 06:51:47;;;;;;;7.00;4.40;;;;;;;44.58;25.23;101201.35;106722;1286;58154;-82
2023/07/17 06:54:12;;;;;;;8.70;4.10;;;;;;;44.66;25.08;101204.54;106409;1286;58245;-82
2023/07/17 06:56:39;;;;;;;8.80;4.50;;;;;;;44.87;24.55;101199.11;106611;1286;58139;-82
2023/07/17 06:59:04;;;;;;;5.10;4.60;;;;;;;44.90;24.28;101196.83;106734;1286;58596;-82
2023/07/17 07:01:30;;;;;;;6.00;3.80;;;;;;;44.87;24.55;101194.45;106769;1286;58377;-82
2023/07/17 07:03:55;;;;;;;4.70;4.00;;;;;;;45.18;24.67;101191.31;106434;1289;58326;-82
2023/07/17 07:06:21;;;;;;;6.20;4.00;;;;;;;45.24;24.16;101194.02;106790;1286;58048;-81
2023/07/17 07:08:47;;;;;;;9.20;4.30;;;;;;;45.17;23.94;101196.52;106770;1286;58172;-82
2023/07/17 07:11:12;;;;;;;4.30;3.90;;;;;;;45.15;23.89;101195.33;106730;1286;58439;-80
2023/07/17 07:13:39;;;;;;;6.10;4.10;;;;;;;45.24;23.30;101192.37;106708;1286;58233;-81
2023/07/17 07:16:04;;;;;;;6.00;4.50;;;;;;;45.00;23.57;101195.85;106754;1286;58767;-82
2023/07/17 07:18:30;;;;;;;6.80;3.80;;;;;;;44.97;23.32;101196.31;106439;1286;58278;-80
2023/07/17 07:20:55;;;;;;;4.80;4.00;;;;;;;45.27;23.41;101195.77;106687;1286;58312;-80
2023/07/17 07:23:21;;;;;;;5.30;3.30;;;;;;;45.40;23.24;101193.73;106691;1286;58500;-82
2023/07/17 07:25:47;;;;;;;5.70;3.70;;;;;;;45.01;22.37;101191.25;106749;1286;58690;-81
2023/07/17 07:28:12;;;;;;;6.30;2.80;;;;;;;44.08;23.44;101191.21;106753;1286;58067;-80
2023/07/17 07:30:39;;;;;;;4.70;2.80;;;;;;;43.49;22.94;101188.88;106712;1286;58231;-80
2023/07/17 07:33:05;;;;;;;4.50;2.70;;;;;;;41.71;24.02;101192.25;106399;1286;73496;-81
2023/07/17 07:35:30;;;;;;;3.10;2.70;;;;;;;40.87;25.41;101191.36;106680;1286;58389;-81
2023/07/17 07:37:56;;;;;;;4.20;2.80;;;;;;;41.71;25.90;101184.98;106718;1286;58019;-81
2023/07/17 07:40:22;;;;;;;5.90;2.50;;;;;;;42.88;25.02;101183.11;106697;1285;58321;-80
2023/07/17 07:42:48;;;;;;;3.70;2.50;;;;;;;43.54;24.30;101180.47;106475;1286;58643;-81
2023/07/17 07:45:14;;;;;;;5.00;3.20;;;;;;;43.77;24.04;101179.34;106664;1286;58166;-81
2023/07/17 07:47:40;;;;;;;10.50;3.10;;;;;;;43.53;24.06;101178.08;106405;1286;58264;-81
2023/07/17 07:50:07;;;;;;;7.40;3.20;;;;;;;43.71;24.07;101174.74;106764;1286;58092;-79
2023/07/17 07:52:33;;;;;;;5.70;2.70;;;;;;;43.97;23.66;101171.98;106737;1286;72215;-80
2023/07/17 07:54:58;;;;;;;2.50;2.20;;;;;;;44.11;23.08;101175.77;106731;1286;58158;-80
2023/07/17 07:57:24;;;;;;;3.10;2.50;;;;;;;43.35;22.75;101181.40;106772;1286;58142;-79
2023/07/17 07:59:50;;;;;;;3.10;2.30;;;;;;;43.04;22.69;101179.70;106745;1286;58223;-79
2023/07/17 08:02:17;;;;;;;3.70;2.10;;;;;;;42.33;22.85;101183.36;106805;1286;58043;-80
2023/07/17 08:04:43;;;;;;;2.70;2.50;;;;;;;42.34;22.71;101186.14;106770;1286;58756;-79
2023/07/17 08:07:08;;;;;;;4.50;2.50;;;;;;;42.25;23.35;101182.27;106328;1286;58380;-79
2023/07/17 08:09:34;;;;;;;4.60;2.20;;;;;;;42.73;23.08;101182.07;106759;1286;58248;-78
2023/07/17 08:11:59;;;;;;;2.50;2.30;;;;;;;42.59;22.84;101186.59;106804;1286;58207;-80
2023/07/17 08:14:25;;;;;;;2.80;2.30;;;;;;;42.78;23.31;101186.55;106708;1286;58508;-81
2023/07/17 08:16:51;;;;;;;3.50;2.20;;;;;;;42.78;22.89;101184.81;106363;1286;58591;-80
2023/07/17 08:19:18;;;;;;;2.30;2.00;;;;;;;42.72;22.27;101187.61;106780;1286;58034;-81
2023/07/17 08:21:44;;;;;;;2.20;2.00;;;;;;;42.48;21.40;101181.60;106756;1286;57971;-81
2023/07/17 08:24:09;;;;;;;3.30;1.80;;;;;;;41.88;21.71;101177.23;106758;1286;58106;-81
2023/07/17 08:26:38;;;;;;;3.30;1.90;;;;;;;41.99;21.54;101175.08;106756;1286;58173;-79
2023/07/17 08:29:04;;;;;;;5.50;2.40;;;;;;;42.03;21.49;101175.07;106710;1286;60235;-80
2023/07/17 08:31:32;;;;;;;3.50;2.40;;;;;;;42.01;21.70;101172.56;106694;1286;58213;-79
2023/07/17 08:34:03;;;;;;;3.50;2.10;;;;;;;41.80;21.96;101175.27;106686;1286;73602;-81
2023/07/17 08:36:30;;;;;;;3.00;2.60;;;;;;;42.07;22.56;101174.19;106750;1286;73727;-82
2023/07/17 08:38:55;;;;;;;3.30;2.50;;;;;;;42.44;21.83;101173.26;106449;1286;58150;-80
2023/07/17 08:41:21;;;;;;;2.50;2.30;;;;;;;42.52;21.73;101176.59;106762;1286;58172;-79
2023/07/17 08:43:48;;;;;;;7.40;2.30;;;;;;;42.21;21.41;101178.73;106771;1286;58103;-79
2023/07/17 08:46:14;;;;;;;3.20;2.30;;;;;;;41.41;21.18;101180.02;106477;1286;58222;-80
2023/07/17 08:48:43;;;;;;;2.00;1.80;;;;;;;41.36;21.25;101175.92;106795;1286;58152;-80
2023/07/17 08:51:10;;;;;;;4.20;2.00;;;;;;;41.54;21.14;101172.05;106728;1286;72353;-82
2023/07/17 08:53:38;;;;;;;3.50;2.10;;;;;;;41.40;21.64;101177.88;106705;1286;61365;-82
2023/07/17 08:56:04;;;;;;;2.50;2.10;;;;;;;41.69;21.13;101177.80;106759;1286;60022;-82
2023/07/17 08:58:30;;;;;;;2.50;2.20;;;;;;;41.85;20.77;101170.89;106805;1285;58449;-81
2023/07/17 09:00:57;;;;;;;2.70;2.40;;;;;;;41.79;20.61;101168.94;106770;1286;58255;-82
2023/07/17 09:03:23;;;;;;;3.80;2.20;;;;;;;41.75;20.97;101165.20;106734;1286;58046;-79
2023/07/17 09:05:49;;;;;;;4.00;2.10;;;;;;;42.24;21.40;101165.98;106420;1286;59094;-79
2023/07/17 09:08:15;;;;;;;5.20;2.50;;;;;;;42.54;21.14;101170.30;106819;1286;58071;-79
2023/07/17 09:10:40;;;;;;;2.50;2.00;;;;;;;42.57;21.18;101173.38;106777;1286;58141;-80
2023/07/17 09:13:06;;;;;;;2.50;2.00;;;;;;;42.40;20.75;101165.28;106772;1286;58389;-83
2023/07/17 09:15:33;;;;;;;3.40;2.20;;;;;;;42.14;21.10;101163.44;106726;1286;58219;-80
2023/07/17 09:18:00;;;;;;;3.20;2.00;;;;;;;42.21;21.35;101160.57;106801;1286;61053;-85
2023/07/17 09:20:26;;;;;;;3.10;2.00;;;;;;;42.41;21.44;101168.05;106777;1286;58700;-83
2023/07/17 09:23:09;;;;;;;2.20;2.00;;;;;;;42.52;21.28;101169.64;106798;1285;58095;-83
2023/07/17 09:25:35;;;;;;;4.90;2.10;;;;;;;42.45;20.91;101160.61;106746;1286;73676;-83
2023/07/17 09:28:01;;;;;;;4.90;1.90;;;;;;;42.25;21.20;101159.19;106698;1286;58153;-82
2023/07/17 09:30:27;;;;;;;2.30;2.10;;;;;;;42.14;21.65;101158.18;106734;1286;58673;-80
2023/07/17 09:33:04;;;;;;;5.30;2.20;;;;;;;42.01;21.53;101157.67;106713;1286;58509;-80
2023/07/17 09:35:32;;;;;;;3.50;2.00;;;;;;;41.49;21.15;101158.48;106787;1286;74578;-79
2023/07/17 09:37:58;;;;;;;2.00;1.80;;;;;;;40.77;21.59;101154.23;106743;1286;73195;-81
2023/07/17 09:40:27;;;;;;;3.30;2.10;;;;;;;40.61;22.23;101156.59;106481;1286;58364;-79
2023/07/17 09:42:55;;;;;;;2.10;1.80;;;;;;;40.28;22.67;101153.55;106482;1286;61147;-80
2023/07/17 09:45:24;;;;;;;5.80;2.10;;;;;;;39.49;23.30;101152.93;106722;1286;74144;-81
2023/07/17 09:47:50;;;;;;;7.30;2.10;;;;;;;38.55;23.83;101155.51;106788;1286;73335;-79
2023/07/17 09:50:18;;;;;;;3.40;1.90;;;;;;;37.81;25.14;101158.80;106745;1286;58309;-80
2023/07/17 09:52:47;;;;;;;3.50;2.00;;;;;;;37.56;25.59;101156.17;106746;1286;59848;-78
2023/07/17 09:55:14;;;;;;;3.80;2.00;;;;;;;37.61;25.34;101149.10;106453;1286;59046;-80
2023/07/17 09:57:42;;;;;;;8.60;2.20;;;;;;;37.88;25.75;101150.21;106490;1286;73898;-80
2023/07/17 10:00:18;;;;;;;4.90;2.10;;;;;;;38.12;25.39;101144.05;106768;1286;74365;-80
2023/07/17 10:03:01;;;;;;;3.70;2.00;;;;;;;37.72;25.19;101144.58;106702;1286;73932;-82
2023/07/17 10:05:38;;;;;;;3.70;1.80;;;;;;;36.94;26.26;101144.06;106758;1286;60581;-78
2023/07/17 10:08:08;;;;;;;5.00;2.00;;;;;;;36.54;26.73;101145.52;106452;1286;60914;-80
2023/07/17 10:10:35;;;;;;;2.90;1.80;;;;;;;36.39;26.29;101142.20;106775;1286;73952;-80
2023/07/17 10:13:01;;;;;;;3.30;1.90;;;;;;;36.22;26.68;101139.98;106821;1286;74685;-81
2023/07/17 10:15:29;;;;;;;2.80;2.00;;;;;;;35.94;27.27;101141.71;106718;1286;58215;-80
2023/07/17 10:18:05;;;;;;;2.50;1.90;;;;;;;35.90;28.04;101140.24;106766;1286;61319;-80
2023/07/17 10:20:50;;;;;;;6.20;2.00;;;;;;;36.02;28.52;101134.80;106743;1286;60181;-81
2023/07/17 10:23:26;;;;;;;7.00;2.20;;;;;;;36.16;28.47;101125.08;106448;1286;74596;-79
2023/07/17 10:25:52;;;;;;;2.70;1.80;;;;;;;35.99;28.61;101129.79;106758;1286;73541;-82
2023/07/17 10:28:32;;;;;;;3.70;1.90;;;;;;;35.71;28.21;101132.95;106442;1286;58837;-79
2023/07/17 10:31:07;;;;;;;3.50;2.20;;;;;;;35.25;28.49;101134.12;106890;1285;59330;-81
2023/07/17 10:33:39;;;;;;;3.70;2.10;;;;;;;35.38;28.98;101133.09;106835;1285;60582;-81
2023/07/17 10:36:05;;;;;;;3.90;1.70;;;;;;;35.69;28.18;101131.86;106509;1286;75000;-80
2023/07/17 10:38:37;;;;;;;4.00;1.80;;;;;;;35.95;28.21;101131.20;106847;1285;58305;-80
2023/07/17 10:41:17;;;;;;;5.00;2.00;;;;;;;35.90;28.60;101130.31;106508;1286;71302;-80
2023/07/17 10:43:49;;;;;;;11.50;2.20;;;;;;;36.12;28.33;101125.27;106807;1285;61460;-80
2023/07/17 10:46:17;;;;;;;4.00;2.10;;;;;;;36.44;27.74;101127.14;106490;1285;60732;-80
2023/07/17 10:48:43;;;;;;;3.00;1.80;;;;;;;36.58;27.53;101127.80;106510;1286;74130;-81
2023/07/17 10:51:08;;;;;;;4.30;1.90;;;;;;;36.66;27.34;101125.02;106850;1285;58275;-82
2023/07/17 10:53:34;;;;;;;4.20;2.20;;;;;;;36.79;27.53;101122.31;106806;1285;58334;-81
2023/07/17 10:55:59;;;;;;;5.20;1.90;;;;;;;36.97;27.45;101117.19;106815;1285;58232;-79
2023/07/17 10:58:25;;;;;;;5.00;1.80;;;;;;;37.38;26.97;101123.08;106804;1286;59130;-80
2023/07/17 11:00:51;;;;;;;2.70;1.80;;;;;;;37.30;26.72;101122.76;106791;1285;73815;-81
2023/07/17 11:03:18;;;;;;;7.00;1.80;;;;;;;37.15;27.43;101124.48;106809;1285;58512;-81
2023/07/17 11:05:45;;;;;;;6.00;1.80;;;;;;;37.34;27.12;101121.71;106843;1285;58584;-80
2023/07/17 11:08:12;;;;;;;2.30;1.60;;;;;;;37.49;26.70;101117.23;106870;1285;61586;-82
2023/07/17 11:10:44;;;;;;;5.20;2.20;;;;;;;37.30;27.42;101116.49;106851;1286;73682;-82
2023/07/17 11:13:10;;;;;;;5.70;1.90;;;;;;;37.25;27.06;101115.05;106834;1285;73432;-79
2023/07/17 11:15:37;;;;;;;4.80;1.90;;;;;;;37.24;26.95;101111.92;106791;1285;58166;-82
2023/07/17 11:18:05;;;;;;;6.90;2.10;;;;;;;37.19;26.56;101116.08;106803;1285;60145;-81
2023/07/17 11:20:32;;;;;;;5.40;1.60;;;;;;;37.13;26.25;101117.46;106800;1285;59856;-80